createdAt,value
2023-04-27T00:01:19.180Z,93.91
2023-04-27T00:02:59.834Z,93.82
2023-04-27T00:04:40.199Z,94.12
2023-04-27T00:06:20.588Z,94.51
2023-04-27T00:08:00.891Z,94.91
2023-04-27T00:09:41.287Z,95.05
2023-04-27T00:11:21.781Z,95.16
2023-04-27T00:13:02.172Z,95.24
2023-04-27T00:14:42.520Z,95.19
2023-04-27T00:16:23.017Z,95.15
2023-04-27T00:18:03.314Z,95.08
2023-04-27T00:19:43.726Z,95.1
2023-04-27T00:21:24.124Z,95.27
2023-04-27T00:23:04.592Z,95.53
2023-04-27T00:24:44.949Z,95.33
2023-04-27T00:26:25.385Z,95.31
2023-04-27T00:28:05.787Z,95.31
2023-04-27T00:29:46.165Z,95.52
2023-04-27T00:31:26.472Z,95.54
2023-04-27T00:33:06.865Z,95.75
2023-04-27T00:34:47.254Z,95.78
2023-04-27T00:36:27.725Z,96.1
2023-04-27T00:38:08.065Z,96.11
2023-04-27T00:39:48.412Z,96.2
2023-04-27T00:41:28.924Z,96.13
2023-04-27T00:43:09.328Z,96.12
2023-04-27T00:44:49.780Z,96.08
2023-04-27T00:46:30.200Z,96.11
2023-04-27T00:48:10.569Z,96.23
2023-04-27T00:49:50.898Z,96.35
2023-04-27T00:51:31.344Z,96.23
2023-04-27T00:53:11.706Z,96.13
2023-04-27T00:54:52.100Z,95.9
2023-04-27T00:56:32.500Z,95.72
2023-04-27T00:58:12.907Z,95.37
2023-04-27T00:59:53.274Z,94.91
2023-04-27T01:01:33.779Z,94.44
2023-04-27T01:03:14.243Z,94.24
2023-04-27T01:04:54.497Z,94.71
2023-04-27T01:06:34.815Z,94.6
2023-04-27T01:08:15.248Z,94.64
2023-04-27T01:09:55.607Z,95.01
2023-04-27T01:11:36.007Z,95.21
2023-04-27T01:13:16.514Z,95.52
2023-04-27T01:14:56.888Z,95.73
2023-04-27T01:16:37.330Z,95.84
2023-04-27T01:18:17.665Z,96.07
2023-04-27T01:19:58.154Z,96.19
2023-04-27T01:21:38.616Z,96.19
2023-04-27T01:23:19.028Z,96.12
2023-04-27T01:24:59.434Z,96.12
2023-04-27T01:26:39.810Z,96.12
2023-04-27T01:28:20.203Z,96.17
2023-04-27T01:30:00.625Z,96.27
2023-04-27T01:31:41.076Z,96.33
2023-04-27T01:33:21.394Z,96.4
2023-04-27T01:35:01.817Z,96.3
2023-04-27T01:36:42.205Z,96.2
2023-04-27T01:38:22.668Z,96.3
2023-04-27T01:40:03.021Z,96.4
2023-04-27T01:41:43.404Z,96.5
2023-04-27T01:43:23.798Z,96.6
2023-04-27T01:45:04.257Z,96.68
2023-04-27T01:46:44.736Z,96.76
2023-04-27T01:48:25.053Z,96.72
2023-04-27T01:50:05.443Z,96.75
2023-04-27T01:51:45.781Z,96.84
2023-04-27T01:53:26.112Z,96.92
2023-04-27T01:55:06.496Z,96.91
2023-04-27T01:56:46.931Z,96.83
2023-04-27T01:58:27.283Z,96.88
2023-04-27T02:00:07.735Z,97.22
2023-04-27T02:01:48.179Z,97.32
2023-04-27T02:03:28.606Z,97.35
2023-04-27T02:05:08.909Z,97.47
2023-04-27T02:06:49.248Z,97.54
2023-04-27T02:08:29.708Z,97.52
2023-04-27T02:10:10.066Z,97.45
2023-04-27T02:11:50.446Z,97.48
2023-04-27T02:13:30.838Z,97.51
2023-04-27T02:15:11.250Z,97.47
2023-04-27T02:16:51.673Z,97.25
2023-04-27T02:18:32.137Z,97.18
2023-04-27T02:20:12.539Z,97.1
2023-04-27T02:21:52.912Z,97.06
2023-04-27T02:23:33.453Z,96.97
2023-04-27T02:25:13.808Z,96.87
2023-04-27T02:26:54.265Z,96.73
2023-04-27T02:28:34.728Z,96.44
2023-04-27T02:30:15.089Z,96.35
2023-04-27T02:31:55.542Z,96.15
2023-04-27T02:33:35.921Z,96.07
2023-04-27T02:35:16.317Z,96
2023-04-27T02:36:56.791Z,95.82
2023-04-27T02:38:37.220Z,95.75
2023-04-27T02:40:17.602Z,95.91
2023-04-27T02:41:58.009Z,96.22
2023-04-27T02:43:38.413Z,96.24
2023-04-27T02:45:18.778Z,96.13
2023-04-27T02:46:59.295Z,96.02
2023-04-27T02:48:39.499Z,96.14
2023-04-27T02:50:19.879Z,96.34
2023-04-27T02:52:00.280Z,96.54
2023-04-27T02:53:40.691Z,96.7
2023-04-27T02:55:21.073Z,96.75
2023-04-27T02:57:01.515Z,96.69
2023-04-27T02:58:41.890Z,96.61
2023-04-27T03:00:22.255Z,96.44
2023-04-27T03:02:02.717Z,96.36
2023-04-27T03:03:43.272Z,96.34
2023-04-27T03:05:23.517Z,96.37
2023-04-27T03:07:03.866Z,96.37
2023-04-27T03:08:44.275Z,96.41
2023-04-27T03:10:24.705Z,96.3
2023-04-27T03:12:05.140Z,96.32
2023-04-27T03:13:45.456Z,96.26
2023-04-27T03:15:25.944Z,96.42
2023-04-27T03:17:06.249Z,96.43
2023-04-27T03:18:46.719Z,96.35
2023-04-27T03:20:27.155Z,96.27
2023-04-27T03:22:07.567Z,96.09
2023-04-27T03:23:47.955Z,96.03
2023-04-27T03:25:28.377Z,96.08
2023-04-27T03:27:08.824Z,96.1
2023-04-27T03:28:49.247Z,96.19
2023-04-27T03:30:29.741Z,96.19
2023-04-27T03:32:10.284Z,96.29
2023-04-27T03:33:50.564Z,96.22
2023-04-27T03:35:30.996Z,96.06
2023-04-27T03:37:11.431Z,96.14
2023-04-27T03:38:51.936Z,96.16
2023-04-27T03:40:32.313Z,95.98
2023-04-27T03:42:12.787Z,96.03
2023-04-27T03:43:53.137Z,95.97
2023-04-27T03:45:33.590Z,95.95
2023-04-27T03:47:13.950Z,96.04
2023-04-27T03:48:54.258Z,96.07
2023-04-27T03:50:34.662Z,95.91
2023-04-27T03:52:14.913Z,95.53
2023-04-27T03:53:55.305Z,95.39
2023-04-27T03:55:35.745Z,95.29
2023-04-27T03:57:16.151Z,95.18
2023-04-27T03:58:56.452Z,95.07
2023-04-27T04:00:36.861Z,95.04
2023-04-27T04:02:17.316Z,95.01
2023-04-27T04:03:57.978Z,95.01
2023-04-27T04:05:38.043Z,95.28
2023-04-27T04:07:18.373Z,95.62
2023-04-27T04:08:58.832Z,96.18
2023-04-27T04:10:39.227Z,96.6
2023-04-27T04:12:19.630Z,96.66
2023-04-27T04:14:00.132Z,96.61
2023-04-27T04:15:40.477Z,96.49
2023-04-27T04:17:20.796Z,96.36
2023-04-27T04:19:01.163Z,96.28
2023-04-27T04:20:41.628Z,96.26
2023-04-27T04:22:21.996Z,96.26
2023-04-27T04:24:02.423Z,96.31
2023-04-27T04:25:42.939Z,96.42
2023-04-27T04:27:23.306Z,96.58
2023-04-27T04:29:03.794Z,96.67
2023-04-27T04:30:44.254Z,96.7
2023-04-27T04:32:24.664Z,96.76
2023-04-27T04:34:04.996Z,96.78
2023-04-27T04:35:45.347Z,96.84
2023-04-27T04:37:25.779Z,96.96
2023-04-27T04:39:06.268Z,97.16
2023-04-27T04:40:46.573Z,97.29
2023-04-27T04:42:27.114Z,97.2
2023-04-27T04:44:07.455Z,97.2
2023-04-27T04:45:47.835Z,97.05
2023-04-27T04:47:28.309Z,97
2023-04-27T04:49:08.623Z,97.08
2023-04-27T04:50:49.060Z,97.02
2023-04-27T04:52:29.437Z,97.07
2023-04-27T04:54:09.830Z,97.24
2023-04-27T04:55:50.293Z,97.3
2023-04-27T04:57:30.656Z,97.4
2023-04-27T04:59:11.211Z,97.73
2023-04-27T05:00:51.520Z,97.88
2023-04-27T05:02:32.075Z,97.95
2023-04-27T05:04:12.597Z,97.92
2023-04-27T05:05:52.960Z,97.83
2023-04-27T05:07:33.347Z,97.84
2023-04-27T05:09:13.911Z,97.92
2023-04-27T05:10:54.155Z,98.08
2023-04-27T05:12:34.625Z,97.99
2023-04-27T05:14:15.081Z,98.06
2023-04-27T05:15:55.454Z,98.14
2023-04-27T05:17:35.841Z,98.24
2023-04-27T05:19:16.284Z,98.2
2023-04-27T05:20:56.655Z,98.2
2023-04-27T05:22:37.081Z,98.14
2023-04-27T05:24:17.506Z,98.09
2023-04-27T05:25:57.897Z,98.09
2023-04-27T05:27:38.314Z,98.13
2023-04-27T05:29:18.650Z,98.23
2023-04-27T05:30:59.017Z,98.21
2023-04-27T05:32:39.431Z,98.14
2023-04-27T05:34:19.889Z,98.06
2023-04-27T05:36:00.283Z,98.12
2023-04-27T05:37:40.663Z,98.05
2023-04-27T05:39:21.060Z,98.17
2023-04-27T05:41:01.495Z,98.25
2023-04-27T05:42:41.848Z,98.34
2023-04-27T05:44:22.263Z,98.39
2023-04-27T05:46:02.651Z,98.4
2023-04-27T05:47:43.188Z,98.39
2023-04-27T05:49:23.509Z,98.1
2023-04-27T05:51:03.892Z,97.81
2023-04-27T05:52:44.329Z,97.52
2023-04-27T05:54:24.699Z,97.13
2023-04-27T05:56:05.081Z,96.64
2023-04-27T05:57:47.705Z,96.12
2023-04-27T05:59:25.966Z,95.58
2023-04-27T06:01:06.343Z,94.82
2023-04-27T06:02:46.905Z,94.02
2023-04-27T06:04:27.333Z,93.3
2023-04-27T06:06:07.498Z,92.2
2023-04-27T06:07:47.922Z,91.41
2023-04-27T06:09:28.275Z,91.1
2023-04-27T06:11:08.698Z,90.61
2023-04-27T06:12:49.184Z,89.99
2023-04-27T06:14:29.557Z,89.14
2023-04-27T06:16:10.018Z,88.82
2023-04-27T06:17:50.384Z,88.69
2023-04-27T06:19:30.725Z,87.4
2023-04-27T06:21:11.130Z,86.78
2023-04-27T06:22:51.567Z,86.59
2023-04-27T06:24:31.986Z,85.3
2023-04-27T06:26:12.398Z,84.54
2023-04-27T06:27:52.921Z,84
2023-04-27T06:29:33.373Z,82.72
2023-04-27T06:31:13.778Z,82.13
2023-04-27T06:32:54.209Z,81.66
2023-04-27T06:34:34.576Z,81.82
2023-04-27T06:36:15.014Z,81.39
2023-04-27T06:37:55.448Z,79.77
2023-04-27T06:39:35.806Z,81.69
2023-04-27T06:41:16.228Z,81.22
2023-04-27T06:42:56.638Z,79.13
2023-04-27T06:44:37.033Z,78.78
2023-04-27T06:46:17.475Z,80.62
2023-04-27T06:47:57.853Z,79.05
2023-04-27T06:49:38.298Z,76.86
2023-04-27T06:51:18.776Z,77.91
2023-04-27T06:52:59.242Z,78.62
2023-04-27T06:54:39.688Z,77.27
2023-04-27T06:56:20.055Z,78.3
2023-04-27T06:58:00.531Z,77.92
2023-04-27T06:59:40.941Z,75.67
2023-04-27T07:01:21.352Z,74.4
2023-04-27T07:03:01.810Z,74.31
2023-04-27T07:04:42.174Z,74.31
2023-04-27T07:06:22.492Z,73.86
2023-04-27T07:08:07.010Z,75.46
2023-04-27T07:09:43.332Z,72.07
2023-04-27T07:11:23.732Z,71.67
2023-04-27T07:13:04.809Z,72.59
2023-04-27T07:14:44.586Z,70.39
2023-04-27T07:16:25.011Z,69.59
2023-04-27T07:18:05.560Z,69.76
2023-04-27T07:19:45.816Z,68.5
2023-04-27T07:21:26.203Z,69.99
2023-04-27T07:23:06.618Z,66.86
2023-04-27T07:24:47.030Z,65.57
2023-04-27T07:26:27.423Z,64.09
2023-04-27T07:28:07.846Z,64.04
2023-04-27T07:29:48.275Z,60.45
2023-04-27T07:31:28.760Z,61.83
2023-04-27T07:33:09.144Z,61.49
2023-04-27T07:34:53.461Z,58.43
2023-04-27T07:36:29.964Z,59.01
2023-04-27T07:38:10.354Z,59.8
2023-04-27T07:39:50.831Z,57.65
2023-04-27T07:41:31.142Z,55.23
2023-04-27T07:43:11.495Z,54.32
2023-04-27T07:44:51.861Z,53.75
2023-04-27T07:46:32.262Z,55.76
2023-04-27T07:48:12.737Z,53.63
2023-04-27T07:49:53.184Z,52.9
2023-04-27T07:51:33.545Z,48.76
2023-04-27T07:53:13.950Z,47.23
2023-04-27T07:54:54.345Z,46.34
2023-04-27T07:56:34.792Z,46.58
2023-04-27T07:58:15.198Z,46.32
2023-04-27T07:59:55.578Z,43.43
2023-04-27T08:01:36.044Z,40.73
2023-04-27T08:03:16.604Z,42.4
2023-04-27T08:04:57.217Z,42.57
2023-04-27T08:06:38.015Z,42.21
2023-04-27T08:08:18.059Z,41.94
2023-04-27T08:09:57.980Z,41.68
2023-04-27T08:11:38.391Z,38.14
2023-04-27T08:13:18.855Z,38.93
2023-04-27T08:14:59.287Z,39.13
2023-04-27T08:16:39.692Z,39.14
2023-04-27T08:18:20.101Z,38.62
2023-04-27T08:20:00.527Z,37.13
2023-04-27T08:21:40.926Z,35.21
2023-04-27T08:23:21.283Z,37.27
2023-04-27T08:25:01.714Z,36.44
2023-04-27T08:26:42.143Z,37.49
2023-04-27T08:28:22.545Z,36.67
2023-04-27T08:30:02.951Z,36.92
2023-04-27T08:31:43.432Z,35.76
2023-04-27T08:33:23.738Z,36.26
2023-04-27T08:35:04.191Z,35.43
2023-04-27T08:36:44.620Z,35.6
2023-04-27T08:38:25.767Z,33.3
2023-04-27T08:40:05.439Z,32.76
2023-04-27T08:41:45.823Z,32.6
2023-04-27T08:43:26.219Z,33.9
2023-04-27T08:45:06.591Z,33.35
2023-04-27T08:46:46.981Z,32.08
2023-04-27T08:48:27.343Z,30.86
2023-04-27T08:50:07.703Z,31.34
2023-04-27T08:51:48.130Z,32.29
2023-04-27T08:53:28.490Z,32.21
2023-04-27T08:55:08.885Z,30.1
2023-04-27T08:56:49.163Z,31.78
2023-04-27T08:58:29.546Z,32.23
2023-04-27T09:00:09.894Z,29.72
2023-04-27T09:01:50.312Z,29.7
2023-04-27T09:03:30.903Z,30.52
2023-04-27T09:05:11.278Z,31.06
2023-04-27T09:06:51.532Z,32.1
2023-04-27T09:08:31.811Z,33.15
2023-04-27T09:10:12.254Z,30.84
2023-04-27T09:11:52.699Z,31.19
2023-04-27T09:13:33.102Z,31.29
2023-04-27T09:15:13.522Z,30.08
2023-04-27T09:16:53.921Z,35.3
2023-04-27T09:18:34.278Z,31.76
2023-04-27T09:20:14.723Z,29.78
2023-04-27T09:21:55.140Z,29.82
2023-04-27T09:23:35.590Z,30.68
2023-04-27T09:25:15.904Z,29.16
2023-04-27T09:26:56.677Z,31.71
2023-04-27T09:28:36.640Z,30.13
2023-04-27T09:30:17.054Z,30.46
2023-04-27T09:31:57.502Z,32.67
2023-04-27T09:33:37.888Z,31.41
2023-04-27T09:35:18.244Z,29.29
2023-04-27T09:36:58.676Z,30.96
2023-04-27T09:38:39.029Z,28.89
2023-04-27T09:40:19.496Z,29.16
2023-04-27T09:41:59.828Z,28.26
2023-04-27T09:43:40.257Z,31.12
2023-04-27T09:45:20.716Z,30
2023-04-27T09:47:01.156Z,28.31
2023-04-27T09:48:41.541Z,29.26
2023-04-27T09:50:21.933Z,28.96
2023-04-27T09:52:02.386Z,29.05
2023-04-27T09:53:42.695Z,28.98
2023-04-27T09:55:23.116Z,31.68
2023-04-27T09:57:03.563Z,24.73
2023-04-27T09:58:43.858Z,25.27
2023-04-27T10:00:24.241Z,25.36
2023-04-27T10:02:17.194Z,25.71
2023-04-27T10:03:45.233Z,25.91
2023-04-27T10:05:25.669Z,25.32
2023-04-27T10:07:05.991Z,26.25
2023-04-27T10:08:46.383Z,26.82
2023-04-27T10:10:26.798Z,25.24
2023-04-27T10:12:07.197Z,25.41
2023-04-27T10:13:47.613Z,28.79
2023-04-27T10:15:27.941Z,26.27
2023-04-27T10:17:08.388Z,27.74
2023-04-27T10:18:48.760Z,25.44
2023-04-27T10:20:29.208Z,25.49
2023-04-27T10:22:09.609Z,26.31
2023-04-27T10:23:50.052Z,24.23
2023-04-27T10:25:30.546Z,25.18
2023-04-27T10:27:10.893Z,26.15
2023-04-27T10:28:51.341Z,29.15
2023-04-27T10:30:31.802Z,24
2023-04-27T10:32:12.194Z,23.19
2023-04-27T10:33:52.603Z,27.91
2023-04-27T10:35:32.928Z,24.31
2023-04-27T10:37:13.280Z,24.98
2023-04-27T10:38:53.740Z,23.93
2023-04-27T10:40:34.196Z,24.73
2023-04-27T10:42:14.652Z,23.29
2023-04-27T10:43:55.043Z,25.71
2023-04-27T10:45:35.490Z,23.28
2023-04-27T10:47:15.894Z,24.63
2023-04-27T10:48:56.326Z,26.73
2023-04-27T10:50:36.773Z,26.28
2023-04-27T10:52:17.133Z,24.01
2023-04-27T10:53:57.593Z,25.77
2023-04-27T10:55:37.998Z,29.34
2023-04-27T10:57:18.286Z,25.86
2023-04-27T10:58:58.751Z,25.93
2023-04-27T11:00:39.078Z,24.03
2023-04-27T11:02:19.530Z,23.82
2023-04-27T11:03:59.934Z,26.35
2023-04-27T11:05:40.276Z,25.85
2023-04-27T11:07:20.704Z,24.69
2023-04-27T11:09:01.108Z,24.01
2023-04-27T11:10:41.538Z,23.73
2023-04-27T11:12:22.014Z,24.43
2023-04-27T11:14:02.401Z,27.39
2023-04-27T11:15:42.880Z,24.87
2023-04-27T11:17:23.214Z,26.12
2023-04-27T11:19:03.639Z,27.39
2023-04-27T11:20:44.081Z,24.58
2023-04-27T11:22:24.526Z,30.63
2023-04-27T11:24:04.956Z,25.31
2023-04-27T11:25:45.295Z,26.31
2023-04-27T11:27:25.603Z,23.98
2023-04-27T11:29:05.991Z,24.49
2023-04-27T11:30:46.430Z,27.3
2023-04-27T11:32:26.891Z,24.14
2023-04-27T11:34:07.956Z,25.6
2023-04-27T11:35:47.625Z,26.49
2023-04-27T11:37:28.074Z,27.56
2023-04-27T11:39:08.544Z,28.47
2023-04-27T11:40:48.830Z,25.21
2023-04-27T11:42:29.329Z,24.41
2023-04-27T11:44:09.561Z,24.81
2023-04-27T11:45:49.906Z,27.75
2023-04-27T11:47:30.446Z,25.09
2023-04-27T11:49:10.931Z,24.12
2023-04-27T11:50:51.223Z,24.96
2023-04-27T11:52:31.674Z,23.93
2023-04-27T11:54:12.390Z,25.91
2023-04-27T11:55:52.509Z,23.93
2023-04-27T11:57:32.954Z,28.16
2023-04-27T11:59:13.542Z,27.05
2023-04-27T12:00:53.772Z,25.34
2023-04-27T12:02:34.250Z,27.6
2023-04-27T12:04:14.977Z,25.37
2023-04-27T12:05:55.024Z,25.63
2023-04-27T12:07:35.323Z,24.7
2023-04-27T12:09:15.702Z,24.08
2023-04-27T12:10:56.006Z,24.02
2023-04-27T12:12:36.392Z,23.91
2023-04-27T12:14:17.021Z,23.63
2023-04-27T12:15:58.492Z,30.24
2023-04-27T12:17:37.599Z,28.74
2023-04-27T12:19:17.916Z,28.36
2023-04-27T12:21:02.757Z,23.49
2023-04-27T12:22:38.729Z,22.55
2023-04-27T12:24:19.107Z,23.49
2023-04-27T12:25:59.484Z,25.33
2023-04-27T12:27:39.917Z,22.9
2023-04-27T12:29:20.350Z,23.53
2023-04-27T12:31:00.746Z,22.44
2023-04-27T12:32:41.165Z,23.36
2023-04-27T12:34:21.549Z,23.36
2023-04-27T12:36:02.004Z,24.72
2023-04-27T12:37:42.364Z,25.45
2023-04-27T12:39:22.748Z,24.72
2023-04-27T12:41:03.108Z,23.42
2023-04-27T12:42:43.521Z,24.38
2023-04-27T12:44:23.944Z,24.52
2023-04-27T12:46:04.485Z,24.74
2023-04-27T12:48:01.058Z,23.63
2023-04-27T12:49:25.270Z,25.11
2023-04-27T12:51:05.614Z,25.62
2023-04-27T12:52:46.039Z,25.63
2023-04-27T12:54:26.455Z,24.39
2023-04-27T12:56:06.774Z,23.38
2023-04-27T12:57:47.283Z,24.62
2023-04-27T12:59:27.709Z,24.57
2023-04-27T13:01:08.185Z,23.96
2023-04-27T13:02:48.719Z,26.71
2023-04-27T13:04:29.207Z,24.83
2023-04-27T13:06:09.500Z,26.83
2023-04-27T13:07:49.919Z,26.69
2023-04-27T13:09:30.365Z,29.38
2023-04-27T13:11:10.774Z,24.81
2023-04-27T13:12:51.169Z,26.77
2023-04-27T13:14:31.548Z,24.59
2023-04-27T13:16:11.934Z,23.5
2023-04-27T13:17:52.489Z,29
2023-04-27T13:19:32.759Z,26.9
2023-04-27T13:21:13.195Z,24.92
2023-04-27T13:22:53.632Z,23
2023-04-27T13:24:34.040Z,22.18
2023-04-27T13:26:14.511Z,24.55
2023-04-27T13:27:54.951Z,25.13
2023-04-27T13:29:35.305Z,24.39
2023-04-27T13:31:15.760Z,25.7
2023-04-27T13:33:04.262Z,27.45
2023-04-27T13:34:36.440Z,26.72
2023-04-27T13:36:16.899Z,27.26
2023-04-27T13:37:57.232Z,25.46
2023-04-27T13:39:37.741Z,25.49
2023-04-27T13:41:18.028Z,26.84
2023-04-27T13:42:58.423Z,25.71
2023-04-27T13:44:38.786Z,27.43
2023-04-27T13:46:19.150Z,25.79
2023-04-27T13:47:59.653Z,29.45
2023-04-27T13:49:39.950Z,26.83
2023-04-27T13:51:20.370Z,26.88
2023-04-27T13:53:00.751Z,26.5
2023-04-27T13:54:41.104Z,31.24
2023-04-27T13:56:21.471Z,27
2023-04-27T13:58:01.774Z,26.66
2023-04-27T13:59:42.193Z,25.3
2023-04-27T14:01:22.718Z,26.54
2023-04-27T14:03:03.136Z,26.93
2023-04-27T14:04:43.449Z,30.34
2023-04-27T14:06:23.715Z,30.19
2023-04-27T14:08:04.195Z,26.83
2023-04-27T14:09:44.624Z,25.82
2023-04-27T14:11:25.022Z,26.76
2023-04-27T14:13:05.470Z,26.34
2023-04-27T14:14:45.939Z,27.65
2023-04-27T14:16:26.403Z,28.01
2023-04-27T14:18:06.745Z,28.24
2023-04-27T14:19:47.087Z,26.74
2023-04-27T14:21:27.475Z,28.34
2023-04-27T14:23:07.902Z,29.13
2023-04-27T14:24:48.285Z,30.46
2023-04-27T14:26:28.767Z,30.47
2023-04-27T14:28:09.147Z,27.85
2023-04-27T14:29:49.643Z,29.38
2023-04-27T14:31:30.081Z,28.31
2023-04-27T14:33:10.609Z,28.06
2023-04-27T14:34:50.958Z,28.94
2023-04-27T14:36:31.298Z,27.97
2023-04-27T14:38:11.690Z,28.57
2023-04-27T14:39:52.064Z,28.48
2023-04-27T14:41:32.489Z,28.9
2023-04-27T14:43:12.927Z,30.34
2023-04-27T14:44:53.298Z,28.76
2023-04-27T14:46:33.686Z,29.55
2023-04-27T14:48:14.025Z,28.96
2023-04-27T14:49:54.352Z,29.02
2023-04-27T14:51:34.684Z,32.57
2023-04-27T14:53:15.194Z,30.11
2023-04-27T14:54:55.543Z,29.5
2023-04-27T14:56:35.896Z,29.25
2023-04-27T14:58:16.270Z,29.21
2023-04-27T14:59:56.720Z,30.33
2023-04-27T15:01:37.249Z,31.17
2023-04-27T15:03:17.693Z,29.21
2023-04-27T15:04:58.013Z,30.24
2023-04-27T15:06:38.351Z,29.48
2023-04-27T15:08:18.792Z,27.81
2023-04-27T15:10:02.258Z,26.97
2023-04-27T15:11:39.677Z,27.59
2023-04-27T15:13:20.039Z,27.36
2023-04-27T15:15:00.464Z,28.43
2023-04-27T15:16:40.857Z,27.54
2023-04-27T15:18:21.383Z,27
2023-04-27T15:20:01.727Z,27.13
2023-04-27T15:21:42.124Z,27.36
2023-04-27T15:23:22.525Z,27.09
2023-04-27T15:25:02.937Z,28.4
2023-04-27T15:26:43.365Z,26.46
2023-04-27T15:28:23.748Z,28.03
2023-04-27T15:30:04.158Z,28.09
2023-04-27T15:31:44.613Z,28.46
2023-04-27T15:33:25.047Z,27.46
2023-04-27T15:35:05.469Z,28.43
2023-04-27T15:36:45.923Z,26.94
2023-04-27T15:38:29.406Z,29.28
2023-04-27T15:40:06.846Z,28.75
2023-04-27T15:41:47.317Z,28.75
2023-04-27T15:43:27.749Z,27.05
2023-04-27T15:45:10.010Z,25.91
2023-04-27T15:46:48.559Z,27.38
2023-04-27T15:48:28.940Z,26.57
2023-04-27T15:50:09.310Z,31.88
2023-04-27T15:51:49.703Z,28.68
2023-04-27T15:53:30.186Z,25.16
2023-04-27T15:55:10.678Z,25.15
2023-04-27T15:56:51.098Z,26.4
2023-04-27T15:58:31.499Z,25.73
2023-04-27T16:00:11.924Z,25.98
2023-04-27T16:01:52.364Z,27.59
2023-04-27T16:03:32.794Z,26.95
2023-04-27T16:05:20.640Z,26.12
2023-04-27T16:07:00.612Z,25.5
2023-04-27T16:08:40.970Z,24.94
2023-04-27T16:10:21.317Z,25.17
2023-04-27T16:12:01.734Z,26.11
2023-04-27T16:13:42.092Z,27.21
2023-04-27T16:15:22.563Z,26.62
2023-04-27T16:17:02.916Z,26.1
2023-04-27T16:18:43.285Z,25.82
2023-04-27T16:20:23.711Z,27.15
2023-04-27T16:22:04.128Z,27.25
2023-04-27T16:23:44.735Z,27.91
2023-04-27T16:25:24.836Z,27.42
2023-04-27T16:27:05.212Z,27.64
2023-04-27T16:28:45.519Z,28.36
2023-04-27T16:30:25.891Z,28.56
2023-04-27T16:32:06.356Z,27.12
2023-04-27T16:33:46.687Z,26.3
2023-04-27T16:35:27.044Z,28.85
2023-04-27T16:37:07.432Z,27.34
2023-04-27T16:38:47.851Z,27.51
2023-04-27T16:40:28.211Z,33
2023-04-27T16:42:08.539Z,30.24
2023-04-27T16:43:48.921Z,28.7
2023-04-27T16:45:29.272Z,28.46
2023-04-27T16:47:09.659Z,29.14
2023-04-27T16:48:50.213Z,30.03
2023-04-27T16:50:30.499Z,30.81
2023-04-27T16:52:10.968Z,31.6
2023-04-27T16:53:51.373Z,30.77
2023-04-27T16:55:31.788Z,32.55
2023-04-27T16:57:12.202Z,31.88
2023-04-27T16:58:52.622Z,31.96
2023-04-27T17:00:33.014Z,32.93
2023-04-27T17:02:23.635Z,35.95
2023-04-27T17:03:54.001Z,35.64
2023-04-27T17:05:34.220Z,34.52
2023-04-27T17:07:14.629Z,34.24
2023-04-27T17:08:54.979Z,35.21
2023-04-27T17:10:35.429Z,34.96
2023-04-27T17:12:15.871Z,34.69
2023-04-27T17:13:56.252Z,34.61
2023-04-27T17:15:36.627Z,33.78
2023-04-27T17:17:16.999Z,34.05
2023-04-27T17:18:57.383Z,36.22
2023-04-27T17:20:39.741Z,34.42
2023-04-27T17:22:18.251Z,35.44
2023-04-27T17:23:58.617Z,35.59
2023-04-27T17:25:39.032Z,36.76
2023-04-27T17:27:19.503Z,36.34
2023-04-27T17:29:00.024Z,34.7
2023-04-27T17:30:40.278Z,35.85
2023-04-27T17:32:20.826Z,37.64
2023-04-27T17:34:01.131Z,37.64
2023-04-27T17:35:41.469Z,38.74
2023-04-27T17:37:21.881Z,36.42
2023-04-27T17:39:02.343Z,36.98
2023-04-27T17:40:42.739Z,38.08
2023-04-27T17:42:23.110Z,37.47
2023-04-27T17:44:03.443Z,43.05
2023-04-27T17:45:43.810Z,47.84
2023-04-27T17:47:24.233Z,50.35
2023-04-27T17:49:04.685Z,49.94
2023-04-27T17:50:45.021Z,50.04
2023-04-27T17:52:25.403Z,49.87
2023-04-27T17:54:05.829Z,49.56
2023-04-27T17:55:46.279Z,48
2023-04-27T17:57:26.632Z,45.68
2023-04-27T17:59:07.061Z,43.65
2023-04-27T18:00:47.464Z,43.92
2023-04-27T18:02:27.944Z,45.4
2023-04-27T18:04:08.425Z,45.64
2023-04-27T18:05:55.805Z,46.09
2023-04-27T18:07:29.071Z,47.56
2023-04-27T18:09:09.550Z,49.53
2023-04-27T18:10:49.964Z,51.66
2023-04-27T18:12:30.421Z,53.96
2023-04-27T18:14:10.907Z,54.29
2023-04-27T18:15:54.399Z,53.7
2023-04-27T18:17:31.727Z,53.68
2023-04-27T18:19:12.077Z,52.33
2023-04-27T18:20:52.358Z,52.34
2023-04-27T18:22:32.766Z,52.84
2023-04-27T18:24:13.215Z,54.05
2023-04-27T18:25:53.680Z,56.12
2023-04-27T18:27:34.097Z,58.16
2023-04-27T18:29:14.666Z,58.04
2023-04-27T18:30:54.943Z,57.98
2023-04-27T18:32:35.437Z,58.86
2023-04-27T18:34:15.804Z,58.99
2023-04-27T18:35:56.206Z,60.53
2023-04-27T18:37:36.561Z,61.46
2023-04-27T18:39:17.074Z,59.83
2023-04-27T18:40:57.362Z,60.87
2023-04-27T18:42:37.772Z,61.53
2023-04-27T18:44:18.158Z,62.48
2023-04-27T18:45:58.582Z,60.67
2023-04-27T18:47:39.030Z,62.68
2023-04-27T18:49:19.331Z,64.07
2023-04-27T18:50:59.720Z,63.93
2023-04-27T18:52:40.064Z,64.36
2023-04-27T18:54:20.502Z,64.82
2023-04-27T18:56:00.969Z,65.49
2023-04-27T18:57:41.406Z,66.18
2023-04-27T18:59:21.742Z,66.29
2023-04-27T19:01:02.146Z,66.25
2023-04-27T19:02:42.606Z,65.17
2023-04-27T19:04:22.966Z,64.69
2023-04-27T19:06:03.318Z,66.74
2023-04-27T19:07:43.728Z,64.89
2023-04-27T19:09:24.062Z,65.18
2023-04-27T19:11:04.459Z,64.79
2023-04-27T19:12:44.892Z,65.75
2023-04-27T19:14:25.252Z,65.1
2023-04-27T19:16:05.664Z,64.61
2023-04-27T19:17:47.286Z,64.45
2023-04-27T19:19:26.773Z,66.69
2023-04-27T19:21:08.987Z,65.66
2023-04-27T19:22:47.306Z,66.56
2023-04-27T19:24:27.739Z,68.14
2023-04-27T19:26:12.884Z,68.27
2023-04-27T19:27:48.640Z,68.47
2023-04-27T19:29:32.078Z,69.15
2023-04-27T19:31:09.473Z,69.17
2023-04-27T19:32:49.860Z,69.01
2023-04-27T19:34:30.269Z,69.2
2023-04-27T19:36:10.646Z,68.32
2023-04-27T19:37:50.933Z,67.47
2023-04-27T19:39:33.074Z,67.54
2023-04-27T19:41:11.670Z,67.31
2023-04-27T19:42:52.076Z,67.59
2023-04-27T19:44:32.464Z,67
2023-04-27T19:46:12.887Z,66.92
2023-04-27T19:47:53.266Z,68.49
2023-04-27T19:49:33.650Z,68.42
2023-04-27T19:51:13.967Z,68.94
2023-04-27T19:52:54.363Z,69.41
2023-04-27T19:54:34.762Z,69.13
2023-04-27T19:56:15.105Z,69.08
2023-04-27T19:57:55.504Z,69.61
2023-04-27T19:59:35.886Z,70.19
2023-04-27T20:01:16.417Z,70.41
2023-04-27T20:02:56.920Z,70.75
2023-04-27T20:04:37.348Z,70.28
2023-04-27T20:06:17.516Z,71.01
2023-04-27T20:07:57.896Z,70.97
2023-04-27T20:09:38.260Z,71.36
2023-04-27T20:11:18.700Z,71.5
2023-04-27T20:12:59.058Z,71.81
2023-04-27T20:14:39.507Z,72
2023-04-27T20:16:19.927Z,72.77
2023-04-27T20:18:00.246Z,72.52
2023-04-27T20:19:43.733Z,73.77
2023-04-27T20:21:20.941Z,72.74
2023-04-27T20:23:01.328Z,74.34
2023-04-27T20:24:41.712Z,73.92
2023-04-27T20:26:22.115Z,73.98
2023-04-27T20:28:02.571Z,74.68
2023-04-27T20:29:43.015Z,74.45
2023-04-27T20:31:23.501Z,75.35
2023-04-27T20:33:03.895Z,74.8
2023-04-27T20:34:44.234Z,75.32
2023-04-27T20:36:24.761Z,75.87
2023-04-27T20:38:05.113Z,76.62
2023-04-27T20:39:45.510Z,76.13
2023-04-27T20:41:25.978Z,77.09
2023-04-27T20:43:06.338Z,77.3
2023-04-27T20:44:46.668Z,76.93
2023-04-27T20:46:27.055Z,77.35
2023-04-27T20:48:07.524Z,77.88
2023-04-27T20:49:47.887Z,76.76
2023-04-27T20:51:28.291Z,77.94
2023-04-27T20:53:08.718Z,78.02
2023-04-27T20:54:49.120Z,79.23
2023-04-27T20:56:29.502Z,78.1
2023-04-27T20:58:09.895Z,79.38
2023-04-27T20:59:50.233Z,79.78
2023-04-27T21:01:30.635Z,79.28
2023-04-27T21:03:11.195Z,79.4
2023-04-27T21:04:51.602Z,80.17
2023-04-27T21:06:31.927Z,80.07
2023-04-27T21:08:12.226Z,80.72
2023-04-27T21:09:52.715Z,79.99
2023-04-27T21:11:33.114Z,80.46
2023-04-27T21:13:13.515Z,79.55
2023-04-27T21:14:53.927Z,81.5
2023-04-27T21:16:34.323Z,81.1
2023-04-27T21:18:28.882Z,81.22
2023-04-27T21:19:55.053Z,81.41
2023-04-27T21:21:35.399Z,80.57
2023-04-27T21:23:15.780Z,81.13
2023-04-27T21:24:56.179Z,81.39
2023-04-27T21:26:36.579Z,81.14
2023-04-27T21:28:16.995Z,80.05
2023-04-27T21:29:57.347Z,80.05
2023-04-27T21:31:37.812Z,80.9
2023-04-27T21:33:18.203Z,81.38
2023-04-27T21:34:58.504Z,80.96
2023-04-27T21:36:38.788Z,80.65
2023-04-27T21:38:19.143Z,80.83
2023-04-27T21:39:59.500Z,81.45